sensor_id;sensor_type;location;lat;lon;timestamp;P1;durP1;ratioP1;P2;durP2;ratioP2
20044;SDS011;10183;47.808;9.476;2024-03-17T00:01:04;25.87;;;23.07;;
20044;SDS011;10183;47.808;9.476;2024-03-17T00:03:30;26.43;;;23.30;;
20044;SDS011;10183;47.808;9.476;2024-03-17T00:06:00;26.10;;;23.33;;
20044;SDS011;10183;47.808;9.476;2024-03-17T00:08:27;26.27;;;23.20;;
20044;SDS011;10183;47.808;9.476;2024-03-17T00:10:56;24.77;;;22.10;;
20044;SDS011;10183;47.808;9.476;2024-03-17T00:13:22;39.10;;;24.00;;
20044;SDS011;10183;47.808;9.476;2024-03-17T00:15:48;119.90;;;24.83;;
20044;SDS011;10183;47.808;9.476;2024-03-17T00:18:15;43.90;;;24.57;;
20044;SDS011;10183;47.808;9.476;2024-03-17T00:20:41;76.03;;;26.27;;
20044;SDS011;10183;47.808;9.476;2024-03-17T00:23:06;184.40;;;28.60;;
20044;SDS011;10183;47.808;9.476;2024-03-17T00:25:34;66.60;;;26.23;;
20044;SDS011;10183;47.808;9.476;2024-03-17T00:28:00;54.97;;;26.23;;
20044;SDS011;10183;47.808;9.476;2024-03-17T00:30:26;26.83;;;23.73;;
20044;SDS011;10183;47.808;9.476;2024-03-17T00:32:52;26.73;;;24.00;;
20044;SDS011;10183;47.808;9.476;2024-03-17T00:35:18;26.17;;;23.37;;
20044;SDS011;10183;47.808;9.476;2024-03-17T00:37:47;35.40;;;24.70;;
20044;SDS011;10183;47.808;9.476;2024-03-17T00:40:14;26.67;;;23.80;;
20044;SDS011;10183;47.808;9.476;2024-03-17T00:42:41;27.83;;;24.03;;
20044;SDS011;10183;47.808;9.476;2024-03-17T00:45:07;168.77;;;27.60;;
20044;SDS011;10183;47.808;9.476;2024-03-17T00:47:34;34.37;;;24.63;;
20044;SDS011;10183;47.808;9.476;2024-03-17T00:50:00;25.43;;;22.73;;
20044;SDS011;10183;47.808;9.476;2024-03-17T00:52:26;24.83;;;22.17;;
20044;SDS011;10183;47.808;9.476;2024-03-17T00:54:52;25.93;;;23.23;;
20044;SDS011;10183;47.808;9.476;2024-03-17T00:57:19;25.50;;;22.70;;
20044;SDS011;10183;47.808;9.476;2024-03-17T00:59:44;25.27;;;22.77;;
20044;SDS011;10183;47.808;9.476;2024-03-17T01:02:10;25.97;;;23.37;;
20044;SDS011;10183;47.808;9.476;2024-03-17T01:04:39;25.93;;;23.30;;
20044;SDS011;10183;47.808;9.476;2024-03-17T01:07:05;27.37;;;23.80;;
20044;SDS011;10183;47.808;9.476;2024-03-17T01:09:31;23.93;;;21.63;;
20044;SDS011;10183;47.808;9.476;2024-03-17T01:11:57;23.47;;;21.13;;
20044;SDS011;10183;47.808;9.476;2024-03-17T01:14:22;24.23;;;21.63;;
20044;SDS011;10183;47.808;9.476;2024-03-17T01:16:50;25.10;;;22.43;;
20044;SDS011;10183;47.808;9.476;2024-03-17T01:19:16;24.67;;;22.27;;
20044;SDS011;10183;47.808;9.476;2024-03-17T01:21:42;25.93;;;23.23;;
20044;SDS011;10183;47.808;9.476;2024-03-17T01:24:07;23.70;;;21.30;;
20044;SDS011;10183;47.808;9.476;2024-03-17T01:26:33;25.07;;;21.83;;
20044;SDS011;10183;47.808;9.476;2024-03-17T01:28:59;26.50;;;22.20;;
20044;SDS011;10183;47.808;9.476;2024-03-17T01:31:24;26.30;;;23.47;;
20044;SDS011;10183;47.808;9.476;2024-03-17T01:33:50;26.93;;;23.30;;
20044;SDS011;10183;47.808;9.476;2024-03-17T01:36:15;26.40;;;23.57;;
20044;SDS011;10183;47.808;9.476;2024-03-17T01:38:41;31.30;;;24.27;;
20044;SDS011;10183;47.808;9.476;2024-03-17T01:41:07;31.40;;;25.13;;
20044;SDS011;10183;47.808;9.476;2024-03-17T01:43:32;33.50;;;25.87;;
20044;SDS011;10183;47.808;9.476;2024-03-17T01:45:58;36.37;;;26.63;;
20044;SDS011;10183;47.808;9.476;2024-03-17T01:48:24;35.33;;;26.27;;
20044;SDS011;10183;47.808;9.476;2024-03-17T01:50:52;39.17;;;27.73;;
20044;SDS011;10183;47.808;9.476;2024-03-17T01:53:20;54.57;;;29.63;;
20044;SDS011;10183;47.808;9.476;2024-03-17T01:55:49;145.67;;;30.20;;
20044;SDS011;10183;47.808;9.476;2024-03-17T01:58:15;158.63;;;30.03;;
20044;SDS011;10183;47.808;9.476;2024-03-17T02:00:42;419.93;;;37.50;;
20044;SDS011;10183;47.808;9.476;2024-03-17T02:03:08;41.23;;;27.23;;
20044;SDS011;10183;47.808;9.476;2024-03-17T02:05:36;43.97;;;27.23;;
20044;SDS011;10183;47.808;9.476;2024-03-17T02:08:04;68.27;;;27.47;;
20044;SDS011;10183;47.808;9.476;2024-03-17T02:10:31;46.93;;;25.73;;
20044;SDS011;10183;47.808;9.476;2024-03-17T02:12:58;50.87;;;27.03;;
20044;SDS011;10183;47.808;9.476;2024-03-17T02:15:25;47.57;;;27.43;;
20044;SDS011;10183;47.808;9.476;2024-03-17T02:17:51;42.80;;;26.67;;
20044;SDS011;10183;47.808;9.476;2024-03-17T02:20:16;35.93;;;27.23;;
20044;SDS011;10183;47.808;9.476;2024-03-17T02:22:43;57.70;;;29.20;;
20044;SDS011;10183;47.808;9.476;2024-03-17T02:25:08;42.53;;;29.80;;
20044;SDS011;10183;47.808;9.476;2024-03-17T02:27:34;48.53;;;29.70;;
20044;SDS011;10183;47.808;9.476;2024-03-17T02:30:01;49.30;;;28.80;;
20044;SDS011;10183;47.808;9.476;2024-03-17T02:32:27;51.63;;;28.47;;
20044;SDS011;10183;47.808;9.476;2024-03-17T02:34:53;41.57;;;28.90;;
20044;SDS011;10183;47.808;9.476;2024-03-17T02:37:19;44.93;;;30.07;;
20044;SDS011;10183;47.808;9.476;2024-03-17T02:39:45;39.03;;;28.53;;
20044;SDS011;10183;47.808;9.476;2024-03-17T02:42:11;46.20;;;29.83;;
20044;SDS011;10183;47.808;9.476;2024-03-17T02:44:37;44.93;;;28.60;;
20044;SDS011;10183;47.808;9.476;2024-03-17T02:47:04;42.33;;;27.33;;
20044;SDS011;10183;47.808;9.476;2024-03-17T02:49:30;40.67;;;28.50;;
20044;SDS011;10183;47.808;9.476;2024-03-17T02:52:04;46.97;;;29.33;;
20044;SDS011;10183;47.808;9.476;2024-03-17T02:54:31;55.77;;;30.67;;
20044;SDS011;10183;47.808;9.476;2024-03-17T02:56:58;52.67;;;30.57;;
20044;SDS011;10183;47.808;9.476;2024-03-17T02:59:24;53.73;;;31.03;;
20044;SDS011;10183;47.808;9.476;2024-03-17T03:01:50;49.87;;;30.83;;
20044;SDS011;10183;47.808;9.476;2024-03-17T03:04:17;50.27;;;31.17;;
20044;SDS011;10183;47.808;9.476;2024-03-17T03:06:43;51.73;;;31.87;;
20044;SDS011;10183;47.808;9.476;2024-03-17T03:09:08;42.57;;;31.57;;
20044;SDS011;10183;47.808;9.476;2024-03-17T03:11:45;44.67;;;30.10;;
20044;SDS011;10183;47.808;9.476;2024-03-17T03:14:12;44.50;;;29.67;;
20044;SDS011;10183;47.808;9.476;2024-03-17T03:16:37;40.47;;;28.00;;
20044;SDS011;10183;47.808;9.476;2024-03-17T03:19:03;42.47;;;26.57;;
20044;SDS011;10183;47.808;9.476;2024-03-17T03:21:30;34.87;;;25.83;;
20044;SDS011;10183;47.808;9.476;2024-03-17T03:23:56;38.27;;;26.70;;
20044;SDS011;10183;47.808;9.476;2024-03-17T03:26:22;35.50;;;26.53;;
20044;SDS011;10183;47.808;9.476;2024-03-17T03:28:48;43.27;;;27.40;;
20044;SDS011;10183;47.808;9.476;2024-03-17T03:31:15;30.83;;;25.27;;
20044;SDS011;10183;47.808;9.476;2024-03-17T03:33:42;31.40;;;26.67;;
20044;SDS011;10183;47.808;9.476;2024-03-17T03:36:08;33.47;;;27.30;;
20044;SDS011;10183;47.808;9.476;2024-03-17T03:38:38;39.47;;;27.93;;
20044;SDS011;10183;47.808;9.476;2024-03-17T03:41:10;38.00;;;27.33;;
20044;SDS011;10183;47.808;9.476;2024-03-17T03:43:37;39.57;;;29.37;;
20044;SDS011;10183;47.808;9.476;2024-03-17T03:46:03;35.00;;;27.23;;
20044;SDS011;10183;47.808;9.476;2024-03-17T03:48:29;33.67;;;27.87;;
20044;SDS011;10183;47.808;9.476;2024-03-17T03:50:55;38.77;;;30.63;;
20044;SDS011;10183;47.808;9.476;2024-03-17T03:53:21;34.50;;;28.83;;
20044;SDS011;10183;47.808;9.476;2024-03-17T03:55:47;35.53;;;28.97;;
20044;SDS011;10183;47.808;9.476;2024-03-17T03:58:14;38.90;;;31.10;;
20044;SDS011;10183;47.808;9.476;2024-03-17T04:00:40;39.00;;;29.30;;
20044;SDS011;10183;47.808;9.476;2024-03-17T04:03:05;35.63;;;29.83;;
20044;SDS011;10183;47.808;9.476;2024-03-17T04:05:32;33.97;;;28.00;;
20044;SDS011;10183;47.808;9.476;2024-03-17T04:07:59;36.47;;;29.47;;
20044;SDS011;10183;47.808;9.476;2024-03-17T04:10:25;39.20;;;30.00;;
20044;SDS011;10183;47.808;9.476;2024-03-17T04:12:51;38.60;;;30.63;;
20044;SDS011;10183;47.808;9.476;2024-03-17T04:15:17;41.67;;;30.83;;
20044;SDS011;10183;47.808;9.476;2024-03-17T04:17:43;43.70;;;30.10;;
20044;SDS011;10183;47.808;9.476;2024-03-17T04:20:08;36.63;;;28.50;;
20044;SDS011;10183;47.808;9.476;2024-03-17T04:22:38;43.33;;;30.07;;
20044;SDS011;10183;47.808;9.476;2024-03-17T04:25:03;38.40;;;30.10;;
20044;SDS011;10183;47.808;9.476;2024-03-17T04:27:29;43.33;;;31.43;;
20044;SDS011;10183;47.808;9.476;2024-03-17T04:29:56;39.93;;;29.83;;
20044;SDS011;10183;47.808;9.476;2024-03-17T04:32:23;45.37;;;30.90;;
20044;SDS011;10183;47.808;9.476;2024-03-17T04:34:49;40.33;;;30.03;;
20044;SDS011;10183;47.808;9.476;2024-03-17T04:37:16;42.43;;;31.33;;
20044;SDS011;10183;47.808;9.476;2024-03-17T04:39:45;40.40;;;30.43;;
20044;SDS011;10183;47.808;9.476;2024-03-17T04:42:12;37.17;;;30.77;;
20044;SDS011;10183;47.808;9.476;2024-03-17T04:44:44;37.37;;;30.97;;
20044;SDS011;10183;47.808;9.476;2024-03-17T04:47:11;34.67;;;28.53;;
20044;SDS011;10183;47.808;9.476;2024-03-17T04:49:38;38.53;;;28.87;;
20044;SDS011;10183;47.808;9.476;2024-03-17T04:52:07;38.07;;;29.17;;
20044;SDS011;10183;47.808;9.476;2024-03-17T04:54:34;35.57;;;28.73;;
20044;SDS011;10183;47.808;9.476;2024-03-17T04:57:00;34.10;;;27.13;;
20044;SDS011;10183;47.808;9.476;2024-03-17T04:59:26;33.23;;;28.27;;
20044;SDS011;10183;47.808;9.476;2024-03-17T05:01:52;36.77;;;28.90;;
20044;SDS011;10183;47.808;9.476;2024-03-17T05:04:18;34.57;;;28.30;;
20044;SDS011;10183;47.808;9.476;2024-03-17T05:06:44;35.83;;;27.80;;
20044;SDS011;10183;47.808;9.476;2024-03-17T05:09:12;36.13;;;29.30;;
20044;SDS011;10183;47.808;9.476;2024-03-17T05:11:38;40.83;;;30.13;;
20044;SDS011;10183;47.808;9.476;2024-03-17T05:14:04;40.53;;;30.47;;
20044;SDS011;10183;47.808;9.476;2024-03-17T05:16:30;42.07;;;31.07;;
20044;SDS011;10183;47.808;9.476;2024-03-17T05:18:56;38.67;;;31.50;;
20044;SDS011;10183;47.808;9.476;2024-03-17T05:21:21;41.80;;;32.93;;
20044;SDS011;10183;47.808;9.476;2024-03-17T05:23:48;49.67;;;37.27;;
20044;SDS011;10183;47.808;9.476;2024-03-17T05:26:15;55.40;;;36.73;;
20044;SDS011;10183;47.808;9.476;2024-03-17T05:28:40;55.67;;;36.90;;
20044;SDS011;10183;47.808;9.476;2024-03-17T05:31:06;57.47;;;37.23;;
20044;SDS011;10183;47.808;9.476;2024-03-17T05:33:32;57.90;;;37.97;;
20044;SDS011;10183;47.808;9.476;2024-03-17T05:35:58;52.13;;;32.60;;
20044;SDS011;10183;47.808;9.476;2024-03-17T05:38:28;52.70;;;35.10;;
20044;SDS011;10183;47.808;9.476;2024-03-17T05:43:31;56.43;;;39.87;;
20044;SDS011;10183;47.808;9.476;2024-03-17T05:45:58;59.00;;;43.17;;
20044;SDS011;10183;47.808;9.476;2024-03-17T05:48:28;49.90;;;38.80;;
20044;SDS011;10183;47.808;9.476;2024-03-17T05:50:54;49.07;;;37.07;;
20044;SDS011;10183;47.808;9.476;2024-03-17T05:53:20;48.97;;;36.20;;
20044;SDS011;10183;47.808;9.476;2024-03-17T05:55:46;51.73;;;36.50;;
20044;SDS011;10183;47.808;9.476;2024-03-17T05:58:12;46.73;;;34.50;;
20044;SDS011;10183;47.808;9.476;2024-03-17T06:00:38;58.03;;;33.63;;
20044;SDS011;10183;47.808;9.476;2024-03-17T06:03:04;61.23;;;33.43;;
20044;SDS011;10183;47.808;9.476;2024-03-17T06:05:34;52.33;;;36.30;;
20044;SDS011;10183;47.808;9.476;2024-03-17T06:08:01;46.67;;;36.80;;
20044;SDS011;10183;47.808;9.476;2024-03-17T06:10:29;79.60;;;57.10;;
20044;SDS011;10183;47.808;9.476;2024-03-17T06:12:56;63.00;;;46.17;;
20044;SDS011;10183;47.808;9.476;2024-03-17T06:15:22;42.63;;;32.60;;
20044;SDS011;10183;47.808;9.476;2024-03-17T06:17:49;55.57;;;33.00;;
20044;SDS011;10183;47.808;9.476;2024-03-17T06:20:17;67.17;;;31.37;;
20044;SDS011;10183;47.808;9.476;2024-03-17T06:22:43;57.77;;;32.03;;
20044;SDS011;10183;47.808;9.476;2024-03-17T06:25:10;77.27;;;34.73;;
20044;SDS011;10183;47.808;9.476;2024-03-17T06:27:37;118.57;;;35.80;;
20044;SDS011;10183;47.808;9.476;2024-03-17T06:30:02;146.87;;;43.83;;
20044;SDS011;10183;47.808;9.476;2024-03-17T06:32:32;435.43;;;50.20;;
20044;SDS011;10183;47.808;9.476;2024-03-17T06:34:58;384.47;;;48.90;;
20044;SDS011;10183;47.808;9.476;2024-03-17T06:37:26;276.83;;;45.17;;
20044;SDS011;10183;47.808;9.476;2024-03-17T06:39:52;153.93;;;39.47;;
20044;SDS011;10183;47.808;9.476;2024-03-17T06:42:18;266.13;;;40.63;;
20044;SDS011;10183;47.808;9.476;2024-03-17T06:44:44;225.13;;;39.20;;
20044;SDS011;10183;47.808;9.476;2024-03-17T06:47:10;120.60;;;36.33;;
20044;SDS011;10183;47.808;9.476;2024-03-17T06:49:35;95.67;;;34.10;;
20044;SDS011;10183;47.808;9.476;2024-03-17T06:52:02;94.90;;;36.63;;
20044;SDS011;10183;47.808;9.476;2024-03-17T06:54:27;142.47;;;33.30;;
20044;SDS011;10183;47.808;9.476;2024-03-17T06:56:53;159.43;;;38.63;;
20044;SDS011;10183;47.808;9.476;2024-03-17T06:59:19;144.53;;;35.27;;
20044;SDS011;10183;47.808;9.476;2024-03-17T07:01:45;144.40;;;37.50;;
20044;SDS011;10183;47.808;9.476;2024-03-17T07:04:12;101.47;;;34.37;;
20044;SDS011;10183;47.808;9.476;2024-03-17T07:06:38;97.90;;;35.37;;
20044;SDS011;10183;47.808;9.476;2024-03-17T07:09:04;119.53;;;39.70;;
20044;SDS011;10183;47.808;9.476;2024-03-17T07:11:30;98.13;;;34.13;;
20044;SDS011;10183;47.808;9.476;2024-03-17T07:13:57;61.30;;;36.63;;
20044;SDS011;10183;47.808;9.476;2024-03-17T07:16:22;54.00;;;41.23;;
20044;SDS011;10183;47.808;9.476;2024-03-17T07:18:50;56.10;;;43.73;;
20044;SDS011;10183;47.808;9.476;2024-03-17T07:21:15;49.70;;;39.53;;
20044;SDS011;10183;47.808;9.476;2024-03-17T07:23:41;54.03;;;45.07;;
20044;SDS011;10183;47.808;9.476;2024-03-17T07:26:07;52.33;;;44.50;;
20044;SDS011;10183;47.808;9.476;2024-03-17T07:28:34;51.13;;;42.53;;
20044;SDS011;10183;47.808;9.476;2024-03-17T07:31:00;55.50;;;45.80;;
20044;SDS011;10183;47.808;9.476;2024-03-17T07:33:26;53.00;;;47.20;;
20044;SDS011;10183;47.808;9.476;2024-03-17T07:35:53;56.90;;;49.03;;
20044;SDS011;10183;47.808;9.476;2024-03-17T07:38:22;55.77;;;49.90;;
20044;SDS011;10183;47.808;9.476;2024-03-17T07:41:02;59.03;;;52.37;;
20044;SDS011;10183;47.808;9.476;2024-03-17T07:43:36;64.43;;;51.40;;
20044;SDS011;10183;47.808;9.476;2024-03-17T07:46:10;76.87;;;59.43;;
20044;SDS011;10183;47.808;9.476;2024-03-17T07:48:38;62.60;;;53.07;;
20044;SDS011;10183;47.808;9.476;2024-03-17T07:51:05;53.50;;;46.73;;
20044;SDS011;10183;47.808;9.476;2024-03-17T07:53:36;44.53;;;37.37;;
20044;SDS011;10183;47.808;9.476;2024-03-17T07:56:06;43.63;;;38.90;;
20044;SDS011;10183;47.808;9.476;2024-03-17T07:58:37;45.57;;;40.40;;
20044;SDS011;10183;47.808;9.476;2024-03-17T08:01:07;47.30;;;42.40;;
20044;SDS011;10183;47.808;9.476;2024-03-17T08:03:36;40.47;;;34.43;;
20044;SDS011;10183;47.808;9.476;2024-03-17T08:06:04;45.53;;;40.23;;
20044;SDS011;10183;47.808;9.476;2024-03-17T08:08:31;41.93;;;37.57;;
20044;SDS011;10183;47.808;9.476;2024-03-17T08:10:58;46.03;;;41.10;;
20044;SDS011;10183;47.808;9.476;2024-03-17T08:13:27;42.33;;;37.73;;
20044;SDS011;10183;47.808;9.476;2024-03-17T08:15:56;42.70;;;38.13;;
20044;SDS011;10183;47.808;9.476;2024-03-17T08:18:23;47.63;;;40.70;;
20044;SDS011;10183;47.808;9.476;2024-03-17T08:20:49;45.03;;;40.13;;
20044;SDS011;10183;47.808;9.476;2024-03-17T08:23:15;48.13;;;42.47;;
20044;SDS011;10183;47.808;9.476;2024-03-17T08:25:46;47.30;;;38.50;;
20044;SDS011;10183;47.808;9.476;2024-03-17T08:28:20;43.33;;;38.63;;
20044;SDS011;10183;47.808;9.476;2024-03-17T08:30:53;42.77;;;38.13;;
20044;SDS011;10183;47.808;9.476;2024-03-17T08:33:22;39.00;;;33.70;;
20044;SDS011;10183;47.808;9.476;2024-03-17T08:35:55;39.37;;;35.07;;
20044;SDS011;10183;47.808;9.476;2024-03-17T08:38:21;38.73;;;34.23;;
20044;SDS011;10183;47.808;9.476;2024-03-17T08:40:48;38.90;;;34.90;;
20044;SDS011;10183;47.808;9.476;2024-03-17T08:43:18;41.93;;;36.73;;
20044;SDS011;10183;47.808;9.476;2024-03-17T08:45:45;43.70;;;37.80;;
20044;SDS011;10183;47.808;9.476;2024-03-17T08:48:19;44.33;;;39.63;;
20044;SDS011;10183;47.808;9.476;2024-03-17T08:50:49;45.63;;;38.10;;
20044;SDS011;10183;47.808;9.476;2024-03-17T08:53:18;43.33;;;35.83;;
20044;SDS011;10183;47.808;9.476;2024-03-17T08:55:47;42.27;;;36.50;;
20044;SDS011;10183;47.808;9.476;2024-03-17T08:58:13;47.77;;;41.20;;
20044;SDS011;10183;47.808;9.476;2024-03-17T09:00:39;43.60;;;38.70;;
20044;SDS011;10183;47.808;9.476;2024-03-17T09:03:06;47.77;;;42.67;;
20044;SDS011;10183;47.808;9.476;2024-03-17T09:05:35;44.97;;;39.37;;
20044;SDS011;10183;47.808;9.476;2024-03-17T09:08:01;40.40;;;36.10;;
20044;SDS011;10183;47.808;9.476;2024-03-17T09:10:27;41.10;;;36.73;;
20044;SDS011;10183;47.808;9.476;2024-03-17T09:12:53;39.60;;;35.50;;
20044;SDS011;10183;47.808;9.476;2024-03-17T09:15:19;42.07;;;36.97;;
20044;SDS011;10183;47.808;9.476;2024-03-17T09:17:46;40.50;;;36.10;;
20044;SDS011;10183;47.808;9.476;2024-03-17T09:20:12;40.70;;;36.17;;
20044;SDS011;10183;47.808;9.476;2024-03-17T09:22:40;40.73;;;36.27;;
20044;SDS011;10183;47.808;9.476;2024-03-17T09:25:06;44.87;;;38.80;;
20044;SDS011;10183;47.808;9.476;2024-03-17T09:27:32;39.63;;;32.20;;
20044;SDS011;10183;47.808;9.476;2024-03-17T09:30:02;40.93;;;36.57;;
20044;SDS011;10183;47.808;9.476;2024-03-17T09:32:31;47.83;;;39.13;;
20044;SDS011;10183;47.808;9.476;2024-03-17T09:34:57;51.90;;;43.73;;
20044;SDS011;10183;47.808;9.476;2024-03-17T09:37:24;48.43;;;43.13;;
20044;SDS011;10183;47.808;9.476;2024-03-17T09:39:49;53.37;;;44.80;;
20044;SDS011;10183;47.808;9.476;2024-03-17T09:42:19;49.80;;;44.40;;
20044;SDS011;10183;47.808;9.476;2024-03-17T09:44:48;43.70;;;34.93;;
20044;SDS011;10183;47.808;9.476;2024-03-17T09:47:20;44.63;;;35.93;;
20044;SDS011;10183;47.808;9.476;2024-03-17T09:49:47;44.00;;;37.53;;
20044;SDS011;10183;47.808;9.476;2024-03-17T09:52:20;48.43;;;38.77;;
20044;SDS011;10183;47.808;9.476;2024-03-17T09:55:00;44.83;;;37.93;;
20044;SDS011;10183;47.808;9.476;2024-03-17T09:57:31;43.30;;;37.33;;
20044;SDS011;10183;47.808;9.476;2024-03-17T10:00:00;45.47;;;39.17;;
20044;SDS011;10183;47.808;9.476;2024-03-17T10:02:41;44.77;;;37.00;;
20044;SDS011;10183;47.808;9.476;2024-03-17T10:05:17;40.50;;;35.30;;
20044;SDS011;10183;47.808;9.476;2024-03-17T10:07:44;43.80;;;34.27;;
20044;SDS011;10183;47.808;9.476;2024-03-17T10:10:11;44.33;;;38.20;;
20044;SDS011;10183;47.808;9.476;2024-03-17T10:12:37;45.23;;;36.03;;
20044;SDS011;10183;47.808;9.476;2024-03-17T10:15:03;44.93;;;36.90;;
20044;SDS011;10183;47.808;9.476;2024-03-17T10:17:33;43.17;;;37.50;;
20044;SDS011;10183;47.808;9.476;2024-03-17T10:20:13;44.07;;;38.10;;
20044;SDS011;10183;47.808;9.476;2024-03-17T10:25:27;48.60;;;38.10;;
20044;SDS011;10183;47.808;9.476;2024-03-17T10:27:54;45.70;;;40.13;;
20044;SDS011;10183;47.808;9.476;2024-03-17T10:30:21;50.67;;;40.40;;
20044;SDS011;10183;47.808;9.476;2024-03-17T10:32:54;57.13;;;44.77;;
20044;SDS011;10183;47.808;9.476;2024-03-17T10:35:30;48.83;;;40.90;;
20044;SDS011;10183;47.808;9.476;2024-03-17T10:37:58;53.10;;;46.37;;
20044;SDS011;10183;47.808;9.476;2024-03-17T10:40:25;51.63;;;45.50;;
20044;SDS011;10183;47.808;9.476;2024-03-17T10:42:52;54.07;;;48.17;;
20044;SDS011;10183;47.808;9.476;2024-03-17T10:45:18;48.27;;;41.77;;
20044;SDS011;10183;47.808;9.476;2024-03-17T10:47:46;49.30;;;42.00;;
20044;SDS011;10183;47.808;9.476;2024-03-17T10:50:20;48.37;;;43.03;;
20044;SDS011;10183;47.808;9.476;2024-03-17T10:52:50;48.60;;;39.73;;
20044;SDS011;10183;47.808;9.476;2024-03-17T10:55:25;45.33;;;36.63;;
20044;SDS011;10183;47.808;9.476;2024-03-17T10:57:52;43.17;;;34.73;;
20044;SDS011;10183;47.808;9.476;2024-03-17T11:00:20;42.73;;;35.90;;
20044;SDS011;10183;47.808;9.476;2024-03-17T11:02:48;50.73;;;44.33;;
20044;SDS011;10183;47.808;9.476;2024-03-17T11:05:23;53.80;;;47.60;;
20044;SDS011;10183;47.808;9.476;2024-03-17T11:07:58;53.13;;;46.00;;
20044;SDS011;10183;47.808;9.476;2024-03-17T11:10:28;49.73;;;43.77;;
20044;SDS011;10183;47.808;9.476;2024-03-17T11:12:59;52.97;;;42.00;;
20044;SDS011;10183;47.808;9.476;2024-03-17T11:20:38;45.87;;;40.97;;
20044;SDS011;10183;47.808;9.476;2024-03-17T11:23:08;49.00;;;41.80;;
20044;SDS011;10183;47.808;9.476;2024-03-17T11:25:37;45.07;;;39.33;;
20044;SDS011;10183;47.808;9.476;2024-03-17T11:28:04;45.20;;;40.27;;
20044;SDS011;10183;47.808;9.476;2024-03-17T11:30:49;46.63;;;39.37;;
20044;SDS011;10183;47.808;9.476;2024-03-17T11:38:57;45.00;;;40.10;;
20044;SDS011;10183;47.808;9.476;2024-03-17T11:44:23;44.07;;;37.17;;
20044;SDS011;10183;47.808;9.476;2024-03-17T11:46:52;48.00;;;42.80;;
20044;SDS011;10183;47.808;9.476;2024-03-17T11:49:22;47.90;;;42.87;;
20044;SDS011;10183;47.808;9.476;2024-03-17T11:51:49;47.63;;;41.70;;
20044;SDS011;10183;47.808;9.476;2024-03-17T11:54:17;48.87;;;42.00;;
20044;SDS011;10183;47.808;9.476;2024-03-17T11:56:51;46.60;;;41.50;;
20044;SDS011;10183;47.808;9.476;2024-03-17T11:59:17;44.17;;;39.00;;
20044;SDS011;10183;47.808;9.476;2024-03-17T12:01:47;44.80;;;38.87;;
20044;SDS011;10183;47.808;9.476;2024-03-17T12:04:17;38.87;;;34.40;;
20044;SDS011;10183;47.808;9.476;2024-03-17T12:06:58;40.60;;;34.00;;
20044;SDS011;10183;47.808;9.476;2024-03-17T12:09:25;42.23;;;36.77;;
20044;SDS011;10183;47.808;9.476;2024-03-17T12:12:00;40.03;;;34.63;;
20044;SDS011;10183;47.808;9.476;2024-03-17T12:14:29;44.43;;;37.80;;
20044;SDS011;10183;47.808;9.476;2024-03-17T12:16:56;42.00;;;36.87;;
20044;SDS011;10183;47.808;9.476;2024-03-17T12:19:24;41.33;;;36.80;;
20044;SDS011;10183;47.808;9.476;2024-03-17T12:21:52;37.70;;;33.30;;
20044;SDS011;10183;47.808;9.476;2024-03-17T12:24:29;44.60;;;40.00;;
20044;SDS011;10183;47.808;9.476;2024-03-17T12:26:56;42.23;;;37.60;;
20044;SDS011;10183;47.808;9.476;2024-03-17T12:29:31;38.13;;;32.90;;
20044;SDS011;10183;47.808;9.476;2024-03-17T12:32:01;43.93;;;38.30;;
20044;SDS011;10183;47.808;9.476;2024-03-17T12:34:28;43.90;;;37.33;;
20044;SDS011;10183;47.808;9.476;2024-03-17T12:36:56;39.93;;;34.20;;
20044;SDS011;10183;47.808;9.476;2024-03-17T12:39:24;40.00;;;32.77;;
20044;SDS011;10183;47.808;9.476;2024-03-17T12:42:51;37.53;;;30.70;;
20044;SDS011;10183;47.808;9.476;2024-03-17T12:47:19;40.30;;;33.30;;
20044;SDS011;10183;47.808;9.476;2024-03-17T12:49:49;38.47;;;31.60;;
20044;SDS011;10183;47.808;9.476;2024-03-17T12:52:19;38.33;;;30.50;;
20044;SDS011;10183;47.808;9.476;2024-03-17T12:54:56;38.13;;;33.47;;
20044;SDS011;10183;47.808;9.476;2024-03-17T12:57:45;39.90;;;33.97;;
20044;SDS011;10183;47.808;9.476;2024-03-17T13:00:30;37.10;;;33.10;;
20044;SDS011;10183;47.808;9.476;2024-03-17T13:02:56;38.17;;;33.87;;
20044;SDS011;10183;47.808;9.476;2024-03-17T13:05:36;39.20;;;34.47;;
20044;SDS011;10183;47.808;9.476;2024-03-17T13:08:02;40.67;;;36.37;;
20044;SDS011;10183;47.808;9.476;2024-03-17T13:10:29;41.17;;;36.93;;
20044;SDS011;10183;47.808;9.476;2024-03-17T13:13:08;39.03;;;34.77;;
20044;SDS011;10183;47.808;9.476;2024-03-17T13:15:35;40.50;;;36.13;;
20044;SDS011;10183;47.808;9.476;2024-03-17T13:18:01;38.73;;;34.73;;
20044;SDS011;10183;47.808;9.476;2024-03-17T13:20:28;43.73;;;38.97;;
20044;SDS011;10183;47.808;9.476;2024-03-17T13:22:55;44.00;;;39.20;;
20044;SDS011;10183;47.808;9.476;2024-03-17T13:25:22;45.47;;;40.53;;
20044;SDS011;10183;47.808;9.476;2024-03-17T13:27:54;42.37;;;37.77;;
20044;SDS011;10183;47.808;9.476;2024-03-17T13:30:22;43.27;;;38.67;;
20044;SDS011;10183;47.808;9.476;2024-03-17T13:32:49;42.00;;;36.90;;
20044;SDS011;10183;47.808;9.476;2024-03-17T13:35:21;44.43;;;39.70;;
20044;SDS011;10183;47.808;9.476;2024-03-17T13:37:50;44.40;;;39.83;;
20044;SDS011;10183;47.808;9.476;2024-03-17T13:40:17;42.23;;;37.67;;
20044;SDS011;10183;47.808;9.476;2024-03-17T13:42:47;40.53;;;36.13;;
20044;SDS011;10183;47.808;9.476;2024-03-17T13:45:17;42.50;;;38.03;;
20044;SDS011;10183;47.808;9.476;2024-03-17T13:50:24;40.90;;;36.47;;
20044;SDS011;10183;47.808;9.476;2024-03-17T13:52:50;37.57;;;33.57;;
20044;SDS011;10183;47.808;9.476;2024-03-17T13:57:44;42.23;;;36.07;;
20044;SDS011;10183;47.808;9.476;2024-03-17T14:00:11;39.90;;;35.30;;
20044;SDS011;10183;47.808;9.476;2024-03-17T14:02:44;38.80;;;34.20;;
20044;SDS011;10183;47.808;9.476;2024-03-17T14:05:11;38.23;;;34.20;;
20044;SDS011;10183;47.808;9.476;2024-03-17T14:07:38;37.77;;;33.93;;
20044;SDS011;10183;47.808;9.476;2024-03-17T14:10:04;40.83;;;36.73;;
20044;SDS011;10183;47.808;9.476;2024-03-17T14:12:32;38.77;;;34.57;;
20044;SDS011;10183;47.808;9.476;2024-03-17T14:14:57;39.70;;;35.50;;
20044;SDS011;10183;47.808;9.476;2024-03-17T14:17:23;41.53;;;37.50;;
20044;SDS011;10183;47.808;9.476;2024-03-17T14:19:48;41.30;;;36.90;;
20044;SDS011;10183;47.808;9.476;2024-03-17T14:22:14;43.67;;;39.23;;
20044;SDS011;10183;47.808;9.476;2024-03-17T14:24:40;40.43;;;36.23;;
20044;SDS011;10183;47.808;9.476;2024-03-17T14:27:06;39.07;;;34.93;;
20044;SDS011;10183;47.808;9.476;2024-03-17T14:29:32;38.23;;;32.87;;
20044;SDS011;10183;47.808;9.476;2024-03-17T14:31:58;38.47;;;34.47;;
20044;SDS011;10183;47.808;9.476;2024-03-17T14:34:23;37.97;;;33.67;;
20044;SDS011;10183;47.808;9.476;2024-03-17T14:36:50;37.10;;;32.60;;
20044;SDS011;10183;47.808;9.476;2024-03-17T14:39:16;34.50;;;30.73;;
20044;SDS011;10183;47.808;9.476;2024-03-17T14:41:42;40.80;;;31.03;;
20044;SDS011;10183;47.808;9.476;2024-03-17T14:44:08;40.87;;;31.27;;
20044;SDS011;10183;47.808;9.476;2024-03-17T14:46:33;36.53;;;30.37;;
20044;SDS011;10183;47.808;9.476;2024-03-17T14:48:59;39.37;;;34.23;;
20044;SDS011;10183;47.808;9.476;2024-03-17T14:51:25;37.37;;;33.63;;